Time;durP1;ratioP1;P1;durP2;ratioP2;P2;SDS_P1;SDS_P2;PMS_P1;PMS_P2;Temp;Humidity;BMP_temperature;BMP_pressure;BME280_temperature;BME280_humidity;BME280_pressure;Samples;Min_cycle;Max_cycle;Signal;HPM_P1;HPM_P2
2022/09/15 00:01:25;;;;;;;12.07;7.15;;;15.40;99.90;;;;;;4995808;28;20018;-82
2022/09/15 00:03:52;;;;;;;12.30;8.20;;;15.50;99.90;;;;;;4995375;28;20093;-83
2022/09/15 00:06:19;;;;;;;17.35;9.70;;;15.50;99.90;;;;;;4995537;28;20034;-83
2022/09/15 00:08:45;;;;;;;17.15;9.07;;;15.60;99.90;;;;;;4995497;28;20382;-82
2022/09/15 00:11:23;;;;;;;19.75;11.50;;;15.70;99.90;;;;;;4995130;28;20030;-82
2022/09/15 00:13:49;;;;;;;22.58;11.70;;;15.70;99.90;;;;;;4974449;28;20042;-82
2022/09/15 00:16:16;;;;;;;18.92;12.85;;;15.70;99.90;;;;;;4995504;28;20426;-82
2022/09/15 00:18:43;;;;;;;20.40;12.00;;;15.70;99.90;;;;;;4995007;28;20394;-82
2022/09/15 00:21:12;;;;;;;17.35;11.48;;;15.70;99.90;;;;;;4996154;28;20022;-82
2022/09/15 00:23:38;;;;;;;14.52;11.68;;;15.70;99.90;;;;;;4994842;28;20042;-82
2022/09/15 00:26:09;;;;;;;21.35;12.45;;;15.70;99.90;;;;;;4996448;28;20053;-82
2022/09/15 00:28:35;;;;;;;;;;;15.70;99.90;;;;;;4997038;28;20544;-82
2022/09/15 00:31:05;;;;;;;19.15;11.82;;;15.70;99.90;;;;;;4979110;28;19905;-82
2022/09/15 00:33:31;;;;;;;13.80;11.48;;;15.70;99.90;;;;;;4995215;28;20030;-81
2022/09/15 00:36:01;;;;;;;18.50;10.80;;;15.70;99.90;;;;;;4995290;28;20030;-82
2022/09/15 00:38:27;;;;;;;18.27;11.50;;;15.70;99.90;;;;;;4996431;28;20093;-82
2022/09/15 00:40:55;;;;;;;19.17;12.60;;;15.70;99.90;;;;;;4994830;28;20312;-82
2022/09/15 00:43:40;;;;;;;17.15;11.82;;;15.70;99.90;;;;;;4995784;28;20182;-82
2022/09/15 00:46:06;;;;;;;24.20;12.27;;;15.70;99.90;;;;;;4987205;28;20030;-81
2022/09/15 00:48:33;;;;;;;21.27;11.50;;;15.70;99.90;;;;;;4994993;28;20367;-82
2022/09/15 00:51:01;;;;;;;20.48;12.57;;;15.70;99.90;;;;;;4995020;28;20034;-81
2022/09/15 00:53:29;;;;;;;22.88;12.07;;;15.70;99.90;;;;;;4994597;28;20026;-81
2022/09/15 00:55:55;;;;;;;31.55;11.85;;;15.70;99.90;;;;;;4995057;28;20034;-81
2022/09/15 00:58:28;;;;;;;19.80;10.93;;;15.70;99.90;;;;;;4995983;28;20034;-81
2022/09/15 01:00:57;;;;;;;21.52;12.23;;;15.70;99.90;;;;;;4994771;28;20422;-82
2022/09/15 01:03:24;;;;;;;23.90;15.13;;;15.70;99.90;;;;;;5008618;28;20355;-82
2022/09/15 01:06:08;;;;;;;24.38;15.52;;;15.70;99.90;;;;;;4994098;28;20030;-82
2022/09/15 01:08:38;;;;;;;30.30;15.10;;;15.70;99.90;;;;;;4995174;28;20106;-81
2022/09/15 01:11:04;;;;;;;22.42;14.65;;;15.60;99.90;;;;;;5002602;28;20052;-81
2022/09/15 01:13:48;;;;;;;15.52;12.23;;;15.70;99.90;;;;;;4986580;28;20474;-82
2022/09/15 01:16:25;;;;;;;16.15;11.45;;;15.60;99.90;;;;;;4971715;28;20768;-81
2022/09/15 01:19:37;;;;;;;22.23;12.10;;;15.60;99.90;;;;;;4994294;28;20038;-81
2022/09/15 01:22:15;;;;;;;20.08;14.65;;;15.60;99.90;;;;;;4978004;28;20176;-82
2022/09/15 01:24:52;;;;;;;24.00;17.08;;;15.60;99.90;;;;;;4977616;28;20030;-82
2022/09/15 01:28:14;;;;;;;21.90;14.88;;;15.60;99.90;;;;;;4991448;28;20085;-82
2022/09/15 01:31:08;;;;;;;20.52;15.50;;;15.60;99.90;;;;;;5007075;28;20684;-82
2022/09/15 01:34:06;;;;;;;24.83;16.63;;;15.60;99.90;;;;;;4999751;28;20089;-82
2022/09/15 01:36:37;;;;;;;21.75;16.05;;;15.50;99.90;;;;;;4989738;28;20037;-83
2022/09/15 01:39:13;;;;;;;51.97;22.45;;;15.50;99.90;;;;;;4994037;28;20490;-83
2022/09/15 01:41:58;;;;;;;287.75;35.50;;;15.50;99.90;;;;;;4994070;28;20022;-83
2022/09/15 01:44:32;;;;;;;267.38;33.03;;;15.60;99.90;;;;;;4993822;28;20033;-83
2022/09/15 01:47:33;;;;;;;281.75;33.97;;;15.60;99.90;;;;;;4976619;28;20038;-82
2022/09/15 01:50:05;;;;;;;336.60;36.25;;;15.60;99.90;;;;;;4993192;28;20141;-82
2022/09/15 01:52:32;;;;;;;321.42;36.22;;;15.50;99.90;;;;;;4974463;28;20034;-83
2022/09/15 01:55:02;;;;;;;118.53;25.83;;;15.50;99.90;;;;;;4994210;28;20045;-82
2022/09/15 01:57:28;;;;;;;33.25;21.80;;;15.50;99.90;;;;;;4993275;28;20045;-82
2022/09/15 01:59:54;;;;;;;43.83;20.27;;;15.50;99.90;;;;;;4989215;28;20031;-82
2022/09/15 02:02:37;;;;;;;26.73;19.15;;;15.50;99.90;;;;;;4993727;28;20057;-82
2022/09/15 02:05:15;;;;;;;24.77;18.15;;;15.50;99.90;;;;;;4993110;28;20042;-82
2022/09/15 02:07:46;;;;;;;42.03;19.10;;;15.50;99.90;;;;;;4994608;28;20168;-82
2022/09/15 02:10:33;;;;;;;28.85;19.70;;;15.40;99.90;;;;;;4993484;28;20030;-82
2022/09/15 02:13:15;;;;;;;30.77;19.27;;;15.40;99.90;;;;;;4993234;28;20046;-82
2022/09/15 02:15:52;;;;;;;25.85;18.98;;;15.40;99.90;;;;;;4993244;28;20501;-82
2022/09/15 02:18:33;;;;;;;22.38;14.23;;;15.40;99.90;;;;;;4993153;28;20450;-82
2022/09/15 02:21:14;;;;;;;20.95;13.45;;;15.40;99.90;;;;;;4979156;28;20825;-82
2022/09/15 02:23:46;;;;;;;19.05;13.50;;;15.40;99.90;;;;;;4976279;28;20045;-82
2022/09/15 02:26:16;;;;;;;18.95;12.15;;;15.30;99.90;;;;;;4973952;28;20026;-82
2022/09/15 02:28:44;;;;;;;17.42;12.00;;;15.40;99.90;;;;;;4993064;28;20125;-82
2022/09/15 02:31:14;;;;;;;19.13;12.40;;;15.40;99.90;;;;;;4993323;28;20026;-85
2022/09/15 02:33:49;;;;;;;17.95;13.60;;;15.40;99.90;;;;;;4995327;28;20436;-85
2022/09/15 02:36:18;;;;;;;23.58;16.38;;;15.40;99.90;;;;;;4994223;28;20130;-85
2022/09/15 02:38:51;;;;;;;105.45;21.80;;;15.40;99.90;;;;;;4974546;28;20371;-85
2022/09/15 02:41:17;;;;;;;76.03;21.10;;;15.30;99.90;;;;;;4995425;28;20026;-84
2022/09/15 02:43:49;;;;;;;326.88;34.67;;;15.30;99.90;;;;;;4994490;28;20105;-85
2022/09/15 02:46:17;;;;;;;273.58;34.22;;;15.30;99.90;;;;;;4995395;28;20026;-85
2022/09/15 02:48:43;;;;;;;523.72;47.08;;;15.30;99.90;;;;;;4994075;28;20125;-85
2022/09/15 02:51:10;;;;;;;481.95;45.50;;;15.40;99.90;;;;;;4994308;28;20504;-86
2022/09/15 02:53:36;;;;;;;340.52;39.78;;;15.30;99.90;;;;;;4994179;28;20022;-86
2022/09/15 02:56:07;;;;;;;61.97;28.35;;;15.30;99.90;;;;;;4994408;28;20030;-87
2022/09/15 02:58:51;;;;;;;63.92;30.23;;;15.30;99.90;;;;;;4972456;28;20045;-85
2022/09/15 03:01:44;;;;;;;87.60;30.80;;;15.30;99.90;;;;;;4994517;28;20031;-86
2022/09/15 03:04:10;;;;;;;133.95;31.90;;;15.30;99.90;;;;;;4986034;28;20022;-83
2022/09/15 03:06:35;;;;;;;124.78;33.28;;;15.30;99.90;;;;;;4992114;28;20037;-83
2022/09/15 03:09:05;;;;;;;148.73;32.70;;;15.30;99.90;;;;;;4992324;28;20030;-83
2022/09/15 03:11:31;;;;;;;115.32;33.10;;;15.30;99.90;;;;;;4971333;28;20125;-83
2022/09/15 03:14:00;;;;;;;93.15;32.70;;;15.30;99.90;;;;;;4992467;28;20034;-83
2022/09/15 03:16:30;;;;;;;106.47;34.13;;;15.30;99.90;;;;;;4988188;28;20039;-82
2022/09/15 03:19:00;;;;;;;41.70;22.52;;;15.30;99.90;;;;;;4984299;28;20077;-81
2022/09/15 03:22:03;;;;;;;30.02;19.23;;;15.30;99.90;;;;;;5008577;28;20390;-82
2022/09/15 03:24:29;;;;;;;34.00;21.13;;;15.20;99.90;;;;;;4987465;28;20080;-82
2022/09/15 03:27:26;;;;;;;50.22;26.33;;;15.30;99.90;;;;;;4989734;28;20105;-81
2022/09/15 03:29:52;;;;;;;52.38;30.60;;;15.30;99.90;;;;;;4974421;28;20034;-82
2022/09/15 03:32:36;;;;;;;55.55;31.60;;;15.20;99.90;;;;;;4991960;28;20792;-82
2022/09/15 03:35:03;;;;;;;59.40;32.28;;;15.30;99.90;;;;;;4991661;28;20054;-82
2022/09/15 03:37:51;;;;;;;61.13;34.10;;;15.20;99.90;;;;;;4974708;28;20482;-83
2022/09/15 03:40:16;;;;;;;57.03;33.63;;;15.30;99.90;;;;;;4969036;28;20401;-82
2022/09/15 03:42:42;;;;;;;52.10;32.20;;;15.30;99.90;;;;;;4970828;28;20117;-83
2022/09/15 03:45:08;;;;;;;63.10;33.72;;;15.30;99.90;;;;;;4974724;28;20445;-82
2022/09/15 03:47:34;;;;;;;64.40;33.10;;;15.30;99.90;;;;;;4971841;28;20395;-83
2022/09/15 03:49:59;;;;;;;60.75;33.00;;;15.30;99.90;;;;;;4985837;28;20030;-82
2022/09/15 03:52:25;;;;;;;54.78;31.88;;;15.30;99.90;;;;;;4973010;28;20041;-83
2022/09/15 03:54:50;;;;;;;56.95;31.95;;;15.30;99.90;;;;;;4991390;28;20030;-83
2022/09/15 03:57:16;;;;;;;58.28;32.75;;;15.30;99.90;;;;;;4993157;28;20084;-83
2022/09/15 03:59:42;;;;;;;52.70;32.03;;;15.30;99.90;;;;;;4991603;28;20038;-83
2022/09/15 04:02:08;;;;;;;54.35;32.22;;;15.30;99.90;;;;;;4991608;28;20691;-82
2022/09/15 04:04:33;;;;;;;52.08;31.20;;;15.30;99.90;;;;;;4991481;28;20446;-83
2022/09/15 04:06:59;;;;;;;55.20;32.30;;;15.30;99.90;;;;;;4991440;28;20500;-82
2022/09/15 04:09:25;;;;;;;53.88;33.20;;;15.30;99.90;;;;;;4992792;28;20080;-82
2022/09/15 04:11:51;;;;;;;60.92;35.00;;;15.30;99.90;;;;;;4987162;28;20039;-82
2022/09/15 04:14:16;;;;;;;57.38;34.15;;;15.30;99.90;;;;;;4979169;28;20031;-82
2022/09/15 04:16:57;;;;;;;60.67;34.40;;;15.30;99.90;;;;;;5007623;28;20034;-81
2022/09/15 04:19:23;;;;;;;56.72;32.30;;;15.30;99.90;;;;;;4987475;28;20030;-82
2022/09/15 04:21:48;;;;;;;48.60;30.75;;;15.30;99.90;;;;;;4991689;28;20034;-82
2022/09/15 04:24:16;;;;;;;45.38;27.25;;;15.30;99.90;;;;;;4991323;28;20026;-82
2022/09/15 04:26:41;;;;;;;47.55;28.17;;;15.30;99.90;;;;;;4991520;28;20108;-82
2022/09/15 04:29:13;;;;;;;51.38;30.35;;;15.30;99.90;;;;;;4991599;28;20812;-82
2022/09/15 04:31:38;;;;;;;50.35;28.75;;;15.30;99.90;;;;;;4991542;28;20498;-82
2022/09/15 04:34:04;;;;;;;54.97;32.83;;;15.30;99.90;;;;;;4993547;28;20041;-82
2022/09/15 04:36:30;;;;;;;60.28;33.25;;;15.30;99.90;;;;;;4978895;28;20030;-82
2022/09/15 04:38:57;;;;;;;54.88;32.90;;;15.30;99.90;;;;;;4971699;28;20104;-82
2022/09/15 04:41:24;;;;;;;54.65;32.13;;;15.30;99.90;;;;;;4990271;28;20038;-82
2022/09/15 04:43:50;;;;;;;58.63;32.65;;;15.30;99.90;;;;;;4993966;28;20026;-83
2022/09/15 04:46:17;;;;;;;56.00;31.13;;;15.30;99.90;;;;;;4995293;28;20023;-83
2022/09/15 04:48:44;;;;;;;60.70;33.08;;;15.30;99.90;;;;;;4995031;28;20544;-83
2022/09/15 04:51:13;;;;;;;56.53;33.38;;;15.30;99.90;;;;;;4991777;28;20037;-82
2022/09/15 04:53:40;;;;;;;63.03;34.55;;;15.30;99.90;;;;;;4993755;28;20026;-84
2022/09/15 04:56:11;;;;;;;62.70;34.05;;;15.30;99.90;;;;;;4970792;28;20553;-82
2022/09/15 04:58:38;;;;;;;54.13;31.52;;;15.30;99.90;;;;;;4972716;28;20027;-81
2022/09/15 05:01:15;;;;;;;50.33;26.77;;;15.30;99.90;;;;;;5010579;28;20026;-81
2022/09/15 05:03:43;;;;;;;44.13;24.30;;;15.30;99.90;;;;;;4985658;28;20027;-82
2022/09/15 05:06:15;;;;;;;49.85;26.65;;;15.30;99.90;;;;;;4992079;28;20022;-84
2022/09/15 05:08:41;;;;;;;34.92;20.85;;;15.30;99.90;;;;;;4994309;28;20085;-84
2022/09/15 05:11:09;;;;;;;35.60;19.80;;;15.30;99.90;;;;;;4975149;28;20018;-84
2022/09/15 05:13:36;;;;;;;36.55;21.15;;;15.30;99.90;;;;;;4984209;28;20125;-84
2022/09/15 05:16:10;;;;;;;58.47;24.55;;;15.30;99.90;;;;;;4985667;28;20022;-84
2022/09/15 05:18:37;;;;;;;33.88;19.25;;;15.30;99.90;;;;;;4975525;28;20023;-86
2022/09/15 05:21:04;;;;;;;30.40;16.15;;;15.30;99.90;;;;;;4977751;28;20023;-87
2022/09/15 05:23:30;;;;;;;22.85;13.82;;;15.20;99.90;;;;;;4993533;28;20026;-87
2022/09/15 05:25:57;;;;;;;109.35;21.20;;;15.30;99.90;;;;;;4992289;28;20387;-87
2022/09/15 05:28:24;;;;;;;28.60;15.65;;;15.30;99.90;;;;;;4976444;28;20122;-87
2022/09/15 05:30:54;;;;;;;21.17;11.27;;;15.20;99.90;;;;;;4991332;28;20026;-87
2022/09/15 05:33:21;;;;;;;5.68;4.70;;;15.20;99.90;;;;;;4993756;28;20030;-86
2022/09/15 05:35:59;;;;;;;4.45;2.30;;;15.20;99.90;;;;;;4967718;28;20125;-86
2022/09/15 05:38:28;;;;;;;2.58;1.95;;;15.20;99.90;;;;;;4974969;28;20537;-86
2022/09/15 05:40:54;;;;;;;1.70;1.55;;;15.00;99.90;;;;;;4974275;28;20089;-84
2022/09/15 05:43:20;;;;;;;2.53;1.77;;;14.90;99.90;;;;;;4993362;28;20033;-85
2022/09/15 05:45:55;;;;;;;2.22;1.70;;;14.80;99.90;;;;;;4991773;28;20027;-85
2022/09/15 05:48:21;;;;;;;2.67;1.70;;;14.90;99.90;;;;;;4993730;28;20037;-85
2022/09/15 05:50:51;;;;;;;2.63;1.63;;;14.90;99.90;;;;;;4993190;28;20720;-85
2022/09/15 05:53:18;;;;;;;1.65;1.13;;;14.80;99.90;;;;;;4992548;28;20121;-85
2022/09/15 05:55:43;;;;;;;1.73;1.40;;;14.80;99.90;;;;;;4991977;28;20062;-85
2022/09/15 05:58:09;;;;;;;1.98;1.65;;;14.70;99.90;;;;;;4993180;28;20042;-85
2022/09/15 06:00:35;;;;;;;1.80;1.13;;;14.80;99.90;;;;;;4998749;28;20446;-85
2022/09/15 06:03:02;;;;;;;3.33;1.60;;;14.80;99.90;;;;;;4980027;28;20023;-85
2022/09/15 06:05:29;;;;;;;3.50;1.00;;;14.70;99.90;;;;;;4993103;28;20034;-85
2022/09/15 06:07:55;;;;;;;4.53;1.52;;;14.80;99.90;;;;;;4995298;28;20025;-85
2022/09/15 06:10:23;;;;;;;4.00;1.65;;;14.70;99.90;;;;;;4993012;28;20022;-85
2022/09/15 06:12:53;;;;;;;1.75;1.00;;;14.80;99.90;;;;;;5010231;28;20033;-85
2022/09/15 06:15:20;;;;;;;1.40;1.00;;;14.70;99.90;;;;;;4993224;28;20026;-85
2022/09/15 06:17:46;;;;;;;2.35;1.20;;;14.70;99.90;;;;;;4993616;28;20045;-85
2022/09/15 06:20:12;;;;;;;1.73;0.75;;;14.70;99.90;;;;;;4990002;28;20030;-85
2022/09/15 06:22:38;;;;;;;0.75;0.60;;;14.70;99.90;;;;;;4988539;28;20040;-84
2022/09/15 06:25:04;;;;;;;0.50;0.30;;;14.70;99.90;;;;;;4975774;28;20033;-85
2022/09/15 06:27:30;;;;;;;0.17;0.10;;;14.60;99.90;;;;;;4993001;28;20122;-85
2022/09/15 06:29:56;;;;;;;0.43;0.30;;;14.50;99.90;;;;;;4992911;28;20053;-85
2022/09/15 06:32:22;;;;;;;7.55;0.57;;;14.40;99.90;;;;;;4992211;28;20069;-85
2022/09/15 06:34:48;;;;;;;1.25;0.50;;;14.30;99.90;;;;;;4989788;28;20121;-86
2022/09/15 06:37:14;;;;;;;0.20;0.20;;;14.30;99.90;;;;;;4988819;28;20035;-85
2022/09/15 06:39:42;;;;;;;0.45;0.45;;;14.30;99.90;;;;;;4970974;28;20034;-84
2022/09/15 06:42:09;;;;;;;1.67;0.60;;;14.20;99.90;;;;;;4991750;28;20058;-85
2022/09/15 06:44:34;;;;;;;2.88;0.75;;;14.20;99.90;;;;;;4967987;28;20580;-85
2022/09/15 06:47:01;;;;;;;1.10;0.80;;;14.20;99.90;;;;;;4972696;28;20053;-85
2022/09/15 06:49:27;;;;;;;2.83;1.80;;;14.20;99.90;;;;;;4990502;28;20118;-86
2022/09/15 06:51:54;;;;;;;3.63;2.60;;;14.20;99.90;;;;;;4989004;28;20058;-86
2022/09/15 06:54:20;;;;;;;6.50;4.13;;;14.10;99.90;;;;;;4972678;28;20066;-85
2022/09/15 06:56:46;;;;;;;7.03;5.05;;;13.90;99.90;;;;;;4975613;28;20080;-85
2022/09/15 06:59:12;;;;;;;8.70;6.13;;;13.70;99.90;;;;;;4991578;28;20022;-86
2022/09/15 07:01:39;;;;;;;11.13;7.93;;;13.60;99.90;;;;;;4970210;28;20034;-85
2022/09/15 07:04:08;;;;;;;15.25;8.60;;;13.50;99.90;;;;;;4986081;28;20026;-86
2022/09/15 07:06:36;;;;;;;14.30;10.43;;;13.40;99.90;;;;;;4974402;28;20122;-85
2022/09/15 07:09:02;;;;;;;15.63;10.43;;;13.20;99.90;;;;;;4988678;28;20038;-86
2022/09/15 07:11:28;;;;;;;19.10;10.75;;;13.20;99.90;;;;;;4992279;28;20121;-85
2022/09/15 07:13:54;;;;;;;16.02;12.25;;;13.20;99.90;;;;;;4996257;28;20129;-85
2022/09/15 07:16:21;;;;;;;15.60;11.65;;;13.20;99.90;;;;;;4994070;28;20383;-86
2022/09/15 07:18:48;;;;;;;14.77;10.63;;;13.10;99.90;;;;;;4992229;28;20034;-85
2022/09/15 07:21:18;;;;;;;19.13;13.55;;;13.10;99.90;;;;;;4997010;28;20034;-86
2022/09/15 07:23:44;;;;;;;17.88;13.00;;;13.10;99.90;;;;;;4992431;28;20026;-86
2022/09/15 07:26:21;;;;;;;20.63;14.25;;;13.20;99.90;;;;;;4993758;28;20496;-88
2022/09/15 07:28:49;;;;;;;20.50;12.82;;;13.20;99.90;;;;;;4992567;28;20040;-86
2022/09/15 07:31:18;;;;;;;19.50;13.57;;;13.20;99.90;;;;;;4989859;28;20031;-86
2022/09/15 07:33:45;;;;;;;19.00;12.48;;;13.20;99.90;;;;;;4991833;28;20133;-86
2022/09/15 07:36:11;;;;;;;17.25;10.95;;;13.20;99.90;;;;;;4972513;28;20474;-86
2022/09/15 07:38:43;;;;;;;22.67;10.23;;;13.30;99.90;;;;;;4985818;28;20181;-86
2022/09/15 07:41:11;;;;;;;18.67;11.23;;;13.40;99.90;;;;;;4999936;28;20474;-86
2022/09/15 07:43:37;;;;;;;13.98;10.00;;;13.60;99.90;;;;;;4993289;28;20474;-86
2022/09/15 07:46:04;;;;;;;22.02;12.27;;;13.70;99.90;;;;;;4994332;28;20474;-86
2022/09/15 07:48:58;;;;;;;23.60;12.75;;;13.50;99.90;;;;;;4968491;28;20030;-86
2022/09/15 07:51:24;;;;;;;19.77;12.65;;;13.40;99.90;;;;;;4991996;28;20165;-86
2022/09/15 07:53:51;;;;;;;26.52;13.70;;;13.20;99.90;;;;;;4991842;28;20030;-86
2022/09/15 07:56:17;;;;;;;22.65;14.02;;;13.10;99.90;;;;;;4991537;28;20027;-86
2022/09/15 07:58:44;;;;;;;22.83;14.70;;;13.10;99.90;;;;;;4991629;28;20385;-86
2022/09/15 08:01:10;;;;;;;24.25;14.07;;;13.10;99.90;;;;;;4985644;28;20022;-86
2022/09/15 08:03:45;;;;;;;29.30;15.63;;;13.20;99.90;;;;;;4974686;28;20100;-86
2022/09/15 08:06:12;;;;;;;25.25;14.10;;;13.40;99.90;;;;;;5001544;28;20022;-87
2022/09/15 08:08:39;;;;;;;20.50;12.82;;;13.60;99.90;;;;;;4991970;28;20038;-86
2022/09/15 08:11:09;;;;;;;20.48;11.43;;;13.70;99.90;;;;;;4984318;28;20098;-86
2022/09/15 08:13:35;;;;;;;16.83;9.82;;;13.90;99.90;;;;;;4968204;28;20034;-87
2022/09/15 08:16:10;;;;;;;19.73;9.05;;;13.90;99.90;;;;;;4991639;28;20022;-87
2022/09/15 08:18:36;;;;;;;18.55;8.45;;;14.00;99.90;;;;;;4994089;28;20034;-87
2022/09/15 08:21:11;;;;;;;15.90;8.23;;;14.10;99.90;;;;;;4995624;28;20537;-87
2022/09/15 08:23:50;;;;;;;10.27;7.03;;;14.30;99.90;;;;;;4995305;28;20030;-87
2022/09/15 08:26:16;;;;;;;15.35;8.32;;;14.40;99.90;;;;;;4977039;28;20030;-87
2022/09/15 08:28:42;;;;;;;13.02;7.07;;;14.50;99.90;;;;;;4995240;28;20029;-87
2022/09/15 08:31:10;;;;;;;10.77;6.32;;;14.60;99.90;;;;;;4995559;28;20041;-87
2022/09/15 08:33:36;;;;;;;14.65;7.07;;;14.70;99.90;;;;;;4995373;28;20532;-87
2022/09/15 08:36:11;;;;;;;13.43;6.60;;;14.90;99.90;;;;;;4995604;28;20027;-87
2022/09/15 08:38:43;;;;;;;12.65;7.22;;;15.00;99.90;;;;;;4995353;28;20038;-87
2022/09/15 08:41:13;;;;;;;12.90;7.60;;;14.80;99.90;;;;;;5005792;28;20031;-87
2022/09/15 08:43:57;;;;;;;15.02;7.47;;;14.40;99.90;;;;;;4978640;28;20127;-87
2022/09/15 08:46:31;;;;;;;16.88;9.20;;;14.10;99.90;;;;;;4995059;28;20482;-87
2022/09/15 08:49:06;;;;;;;13.60;8.80;;;13.90;99.90;;;;;;4995412;28;20093;-87
2022/09/15 08:51:51;;;;;;;13.85;9.40;;;13.90;99.90;;;;;;4995091;28;20038;-87
2022/09/15 08:54:23;;;;;;;21.95;10.30;;;13.80;99.90;;;;;;4991432;28;20030;-87
2022/09/15 08:56:49;;;;;;;15.50;10.32;;;13.80;99.90;;;;;;4994717;28;20359;-87
2022/09/15 08:59:31;;;;;;;17.73;10.93;;;13.90;99.90;;;;;;4976200;28;20030;-87
2022/09/15 09:02:12;;;;;;;16.60;9.63;;;14.00;99.90;;;;;;4996426;28;20034;-86
2022/09/15 09:05:31;;;;;;;15.88;9.57;;;14.00;99.90;;;;;;4996110;28;20048;-87
2022/09/15 09:08:04;;;;;;;16.58;9.40;;;14.10;99.90;;;;;;5010104;28;20098;-87
2022/09/15 09:14:55;;;;;;;14.52;8.90;;;14.30;99.90;;;;;;4993888;28;20037;-87
2022/09/15 09:18:01;;;;;;;21.60;8.73;;;14.30;99.90;;;;;;4974232;28;20546;-87
2022/09/15 09:20:54;;;;;;;16.02;8.10;;;14.40;99.90;;;;;;4996293;28;20109;-86
2022/09/15 09:23:23;;;;;;;13.48;7.43;;;14.50;99.90;;;;;;4992066;28;20065;-87
2022/09/15 09:25:49;;;;;;;14.07;6.68;;;14.60;99.90;;;;;;4995498;28;20467;-87
2022/09/15 09:28:45;;;;;;;8.30;6.15;;;14.90;99.90;;;;;;4993961;28;20029;-87
2022/09/15 09:31:20;;;;;;;12.07;5.18;;;15.20;99.90;;;;;;4985636;28;20049;-87
2022/09/15 09:34:09;;;;;;;15.00;5.60;;;15.30;99.90;;;;;;4993986;28;20034;-87
2022/09/15 09:36:34;;;;;;;13.85;5.78;;;15.30;99.90;;;;;;4994379;28;20124;-87
2022/09/15 09:39:02;;;;;;;11.15;5.40;;;15.40;99.90;;;;;;4993653;28;20118;-87
2022/09/15 09:41:34;;;;;;;11.02;5.47;;;15.60;99.90;;;;;;4994278;28;20041;-86
2022/09/15 09:44:08;;;;;;;11.43;5.60;;;15.70;99.90;;;;;;4972378;28;20117;-87
2022/09/15 09:46:34;;;;;;;8.05;5.88;;;15.50;99.90;;;;;;5010219;28;20026;-86
2022/09/15 09:49:18;;;;;;;8.95;5.55;;;15.40;99.90;;;;;;4986801;28;20104;-87
2022/09/15 09:51:54;;;;;;;12.40;6.20;;;15.60;99.90;;;;;;4992658;28;20069;-87
2022/09/15 09:54:27;;;;;;;10.55;6.35;;;15.60;99.90;;;;;;4995199;28;20069;-87
2022/09/15 09:56:55;;;;;;;10.27;5.70;;;15.50;99.90;;;;;;4995004;28;20397;-86
2022/09/15 09:59:30;;;;;;;11.30;5.97;;;15.30;99.90;;;;;;4991901;28;20058;-87
2022/09/15 10:02:14;;;;;;;12.07;6.75;;;15.20;99.90;;;;;;4971521;28;20102;-86
2022/09/15 10:05:04;;;;;;;11.63;6.72;;;15.10;99.90;;;;;;4986214;28;20492;-87
2022/09/15 10:07:32;;;;;;;13.88;6.60;;;15.20;99.90;;;;;;4977253;28;20032;-86
2022/09/15 10:10:00;;;;;;;12.23;6.60;;;15.30;99.90;;;;;;4994565;28;21243;-87
2022/09/15 10:12:55;;;;;;;24.70;7.53;;;15.20;99.90;;;;;;4977560;28;20035;-86
2022/09/15 10:15:27;;;;;;;11.27;7.38;;;15.10;99.90;;;;;;4987201;28;20042;-86
2022/09/15 10:17:54;;;;;;;10.10;6.95;;;14.80;99.90;;;;;;4997523;28;20041;-86
2022/09/15 10:20:48;;;;;;;19.10;7.60;;;14.70;99.90;;;;;;4997582;28;20042;-87
2022/09/15 10:23:17;;;;;;;14.70;7.43;;;14.70;99.90;;;;;;4981864;28;20808;-88
2022/09/15 10:25:44;;;;;;;9.77;7.45;;;14.60;99.90;;;;;;4993071;28;20038;-88
2022/09/15 10:28:17;;;;;;;10.27;6.85;;;14.70;99.90;;;;;;4992846;28;20022;-87
2022/09/15 10:31:05;;;;;;;11.95;7.10;;;14.60;99.90;;;;;;5001319;28;20033;-86
2022/09/15 10:33:43;;;;;;;10.93;6.55;;;14.60;99.90;;;;;;4993318;28;20371;-86
2022/09/15 10:36:32;;;;;;;14.48;5.25;;;14.80;99.90;;;;;;4997638;28;20053;-87
2022/09/15 10:39:28;;;;;;;8.57;4.53;;;15.10;99.90;;;;;;4946310;28;20054;-86
2022/09/15 10:42:15;;;;;;;9.52;5.35;;;15.40;99.90;;;;;;4994268;28;20035;-87
2022/09/15 10:45:10;;;;;;;7.82;4.55;;;15.50;99.90;;;;;;4988783;28;20033;-87
2022/09/15 10:47:38;;;;;;;9.55;5.55;;;15.50;99.90;;;;;;4988230;28;20180;-87
2022/09/15 10:50:20;;;;;;;6.00;5.03;;;15.30;99.90;;;;;;4989850;28;20039;-87
2022/09/15 10:53:03;;;;;;;;;;;15.30;99.90;;;;;;4976621;28;20493;-87
2022/09/15 10:55:40;;;;;;;11.82;6.20;;;15.50;99.90;;;;;;5003902;28;19913;-87
2022/09/15 10:58:27;;;;;;;9.45;4.57;;;15.30;99.90;;;;;;4989433;28;20034;-87
2022/09/15 11:01:08;;;;;;;8.50;5.20;;;15.50;99.90;;;;;;4990857;28;20113;-87
2022/09/15 11:04:07;;;;;;;7.22;4.90;;;15.70;99.90;;;;;;4992333;28;20061;-88
2022/09/15 11:07:06;;;;;;;8.32;4.53;;;15.90;99.90;;;;;;4981522;28;20475;-87
2022/09/15 11:10:00;;;;;;;7.45;3.80;;;16.10;99.90;;;;;;4994473;28;20039;-87
2022/09/15 11:12:31;;;;;;;12.18;4.20;;;16.10;99.90;;;;;;4988328;28;20038;-88
2022/09/15 11:15:20;;;;;;;7.35;4.15;;;16.10;99.90;;;;;;4966073;28;20471;-87
2022/09/15 11:18:07;;;;;;;4.75;3.40;;;15.90;99.90;;;;;;4976094;28;20035;-87
2022/09/15 11:21:01;;;;;;;9.13;3.78;;;16.00;99.90;;;;;;4974893;28;20042;-87
2022/09/15 11:23:47;;;;;;;5.28;3.30;;;16.10;99.90;;;;;;4988738;28;20133;-88
2022/09/15 11:26:32;;;;;;;8.25;3.28;;;16.10;99.90;;;;;;4995079;28;20497;-87
2022/09/15 11:29:17;;;;;;;3.72;3.05;;;16.20;99.90;;;;;;4966474;28;20058;-87
2022/09/15 11:31:47;;;;;;;4.88;2.63;;;16.50;99.90;;;;;;4990149;28;20039;-87
2022/09/15 11:34:39;;;;;;;5.25;3.08;;;16.50;99.90;;;;;;4973032;28;20031;-87
2022/09/15 11:37:55;;;;;;;5.63;2.78;;;16.60;99.90;;;;;;4977613;28;20030;-86
2022/09/15 11:40:36;;;;;;;5.05;3.30;;;17.00;99.90;;;;;;4961338;28;20034;-87
2022/09/15 11:43:34;;;;;;;6.30;3.03;;;17.00;99.90;;;;;;4975503;28;20034;-87
2022/09/15 11:46:06;;;;;;;9.30;3.90;;;16.90;99.90;;;;;;4981824;28;20557;-88
2022/09/15 11:48:41;;;;;;;4.38;2.35;;;17.10;99.90;;;;;;4989141;28;20038;-87
2022/09/15 11:51:07;;;;;;;3.42;2.20;;;17.50;99.90;;;;;;5007602;28;20033;-87
2022/09/15 11:54:04;;;;;;;1.83;1.48;;;17.70;99.90;;;;;;4999482;28;20026;-87
2022/09/15 11:56:39;;;;;;;2.70;2.03;;;17.90;99.90;;;;;;4991956;28;20035;-87
2022/09/15 11:59:25;;;;;;;4.43;2.22;;;18.10;99.90;;;;;;4994225;28;20532;-88
2022/09/15 12:01:58;;;;;;;3.92;1.98;;;18.40;99.90;;;;;;4974336;28;20682;-88
2022/09/15 12:05:09;;;;;;;2.58;2.20;;;18.60;99.90;;;;;;4999449;28;20030;-88
2022/09/15 12:07:42;;;;;;;2.53;1.90;;;17.80;99.90;;;;;;4991794;28;20038;-87
2022/09/15 12:10:30;;;;;;;8.55;2.40;;;17.20;99.90;;;;;;4979595;28;20034;-88
2022/09/15 12:12:58;;;;;;;4.15;2.67;;;17.20;99.90;;;;;;4994832;28;20034;-87
2022/09/15 12:15:27;;;;;;;7.38;2.70;;;17.30;99.90;;;;;;4994901;28;20034;-87
2022/09/15 12:18:27;;;;;;;5.15;2.83;;;17.70;99.90;;;;;;4995003;28;20085;-86
2022/09/15 12:21:09;;;;;;;6.75;2.60;;;17.50;99.90;;;;;;4981439;28;20041;-85
2022/09/15 12:23:53;;;;;;;5.90;2.78;;;17.20;99.90;;;;;;4980229;28;20069;-86
2022/09/15 12:26:24;;;;;;;6.18;2.00;;;17.50;99.90;;;;;;4994591;28;20054;-85
2022/09/15 12:29:20;;;;;;;4.55;1.90;;;17.60;99.90;;;;;;4996791;28;20085;-87
2022/09/15 12:31:46;;;;;;;4.85;2.40;;;17.90;99.90;;;;;;4987196;28;20031;-88
2022/09/15 12:34:24;;;;;;;5.22;2.25;;;17.90;99.90;;;;;;4995271;28;20022;-87
2022/09/15 12:36:54;;;;;;;5.13;1.83;;;17.90;99.90;;;;;;4978745;28;20109;-87
2022/09/15 12:39:21;;;;;;;8.35;2.10;;;17.80;99.90;;;;;;5011736;28;20038;-87
2022/09/15 12:41:59;;;;;;;3.80;1.90;;;17.90;99.90;;;;;;4979051;28;20026;-86
2022/09/15 12:44:48;;;;;;;2.28;1.63;;;18.40;99.90;;;;;;4995221;28;20064;-87
2022/09/15 12:47:19;;;;;;;4.03;2.20;;;18.90;99.90;;;;;;4995737;28;20022;-87
2022/09/15 12:49:50;;;;;;;;;;;18.80;99.90;;;;;;4999448;28;20033;-87
2022/09/15 12:52:19;;;;;;;3.17;2.58;;;18.20;99.90;;;;;;4984055;28;20263;-87
2022/09/15 12:54:53;;;;;;;5.82;2.42;;;18.30;99.90;;;;;;4996042;28;20580;-87
2022/09/15 12:57:25;;;;;;;3.38;2.33;;;18.60;99.90;;;;;;4995592;28;20575;-88
2022/09/15 13:00:19;;;;;;;6.97;2.90;;;19.20;99.90;;;;;;4977087;28;20022;-86
2022/09/15 13:02:50;;;;;;;6.70;3.13;;;19.20;99.90;;;;;;4977434;28;20093;-86
2022/09/15 13:05:40;;;;;;;7.33;3.00;;;18.90;99.90;;;;;;4995099;28;20418;-86
2022/09/15 13:08:29;;;;;;;4.68;2.88;;;18.50;99.90;;;;;;4987495;28;20105;-87
2022/09/15 13:11:07;;;;;;;9.48;3.40;;;18.20;99.90;;;;;;4978525;28;20363;-87
2022/09/15 13:13:46;;;;;;;5.50;3.58;;;18.30;99.90;;;;;;4995282;28;20351;-86